Time;durP1;ratioP1;P1;durP2;ratioP2;P2;SDS_P1;SDS_P2;PMS_P1;PMS_P2;Temp;Humidity;BMP_temperature;BMP_pressure;BME280_temperature;BME280_humidity;BME280_pressure;Samples;Min_cycle;Max_cycle;Signal;HPM_P1;HPM_P2
2022/11/20 00:00:13;;;;;;;9.63;8.55;;;;;;;4.98;83.39;100709.19;1737601;82;21237;-79
2022/11/20 00:03:20;;;;;;;10.43;8.83;;;;;;;4.87;82.90;100713.68;1737666;82;21197;-79
2022/11/20 00:06:27;;;;;;;14.15;9.73;;;;;;;5.25;82.27;100691.05;1737458;82;21208;-79
2022/11/20 00:09:32;;;;;;;11.68;9.73;;;;;;;4.93;82.45;100673.48;1737415;82;21291;-80
2022/11/20 00:12:39;;;;;;;14.23;11.88;;;;;;;5.33;81.45;100677.20;1737491;82;21459;-79
2022/11/20 00:15:45;;;;;;;18.27;13.15;;;;;;;4.96;81.88;100685.44;1801454;79;21272;-79
2022/11/20 00:18:44;;;;;;;13.60;12.13;;;;;;;4.60;83.64;100671.30;1801328;79;21296;-79
2022/11/20 00:21:55;;;;;;;16.32;13.48;;;;;;;4.75;81.95;100651.05;1801365;79;21743;-78
2022/11/20 00:25:00;;;;;;;13.43;9.10;;;;;;;4.87;81.81;100649.98;1802876;79;22449;-78
2022/11/20 00:28:05;;;;;;;15.38;11.53;;;;;;;4.60;82.44;100649.62;1801114;79;21830;-79
2022/11/20 00:31:22;;;;;;;16.85;12.28;;;;;;;5.08;81.01;100672.16;1806769;79;21176;-81
2022/11/20 00:34:28;;;;;;;16.23;13.15;;;;;;;5.02;79.47;100667.28;1808255;79;21490;-80
2022/11/20 00:37:34;;;;;;;16.65;12.93;;;;;;;4.82;80.65;100671.70;1808169;79;21180;-80
2022/11/20 00:40:40;;;;;;;17.50;13.58;;;;;;;4.84;81.10;100665.14;1808471;79;21192;-78
2022/11/20 00:43:48;;;;;;;17.62;13.05;;;;;;;5.03;79.69;100662.20;1807999;79;22466;-78
2022/11/20 00:46:54;;;;;;;15.38;12.58;;;;;;;5.22;79.19;100671.86;1808368;79;21177;-78
2022/11/20 00:50:01;;;;;;;16.52;13.32;;;;;;;5.14;79.38;100666.23;1806932;79;21772;-78
2022/11/20 00:53:07;;;;;;;14.50;11.15;;;;;;;5.27;79.04;100641.13;1808558;79;21184;-78
2022/11/20 00:56:15;;;;;;;16.60;12.95;;;;;;;5.08;79.60;100639.63;1808414;79;21165;-78
2022/11/20 00:59:21;;;;;;;14.07;11.78;;;;;;;4.61;81.00;100645.91;1807076;79;21212;-78
2022/11/20 01:02:27;;;;;;;17.95;12.30;;;;;;;5.28;79.45;100646.91;1808421;79;21177;-77
2022/11/20 01:05:33;;;;;;;14.63;12.30;;;;;;;4.86;79.46;100648.27;1808487;79;21330;-78
2022/11/20 01:08:40;;;;;;;16.02;12.70;;;;;;;4.80;79.99;100652.87;1807736;79;21192;-77
2022/11/20 01:11:48;;;;;;;16.40;12.80;;;;;;;4.85;79.99;100630.80;1726558;81;21177;-78
2022/11/20 01:14:55;;;;;;;14.68;12.23;;;;;;;4.85;80.00;100643.84;1691662;85;21238;-77
2022/11/20 01:18:02;;;;;;;15.18;12.53;;;;;;;4.82;79.49;100645.95;1680220;85;21215;-77
2022/11/20 01:21:15;;;;;;;14.28;11.57;;;;;;;5.08;78.44;100634.20;1692635;85;21192;-78
2022/11/20 01:24:23;;;;;;;21.37;11.38;;;;;;;4.69;79.76;100630.37;1707109;81;21633;-78
2022/11/20 01:27:30;;;;;;;14.60;11.40;;;;;;;5.06;78.96;100624.00;1742467;82;21180;-77
2022/11/20 01:30:29;;;;;;;;;;;;;;;4.87;79.11;100625.59;1773291;81;21724;-77
2022/11/20 01:33:36;;;;;;;19.62;13.48;;;;;;;4.99;78.98;100625.54;1776145;81;20226;-78
2022/11/20 01:36:42;;;;;;;24.10;16.60;;;;;;;4.85;79.01;100618.59;1775575;81;21208;-78
2022/11/20 01:39:48;;;;;;;28.60;21.07;;;;;;;4.69;79.14;100607.34;1752890;81;21208;-79
2022/11/20 01:46:27;;;;;;;24.80;17.48;;;;;;;5.08;78.16;100594.89;1775543;81;21193;-79
2022/11/20 01:49:44;;;;;;;23.57;16.10;;;;;;;4.79;78.39;100560.33;1774803;81;21208;-79
2022/11/20 01:52:56;;;;;;;22.70;16.75;;;;;;;4.76;78.63;100576.88;1775574;81;21272;-79
2022/11/20 01:56:01;;;;;;;19.85;14.13;;;;;;;4.94;78.96;100602.00;1775744;81;21192;-78
2022/11/20 01:59:08;;;;;;;28.87;17.55;;;;;;;4.91;79.07;100603.15;1774922;81;21204;-80
2022/11/20 02:02:15;;;;;;;23.52;17.30;;;;;;;4.98;79.04;100598.90;1776092;81;21181;-79
2022/11/20 02:05:31;;;;;;;26.87;16.05;;;;;;;4.85;79.41;100611.32;1775680;81;21196;-78
2022/11/20 02:08:38;;;;;;;22.37;16.02;;;;;;;5.23;78.70;100607.63;1775155;81;21229;-79
2022/11/20 02:11:44;;;;;;;28.57;18.30;;;;;;;5.63;77.02;100626.64;1775514;81;21177;-78
2022/11/20 02:14:50;;;;;;;29.05;18.77;;;;;;;5.54;77.21;100612.53;1774913;81;21216;-78
2022/11/20 02:17:57;;;;;;;29.92;19.60;;;;;;;5.64;76.96;100629.70;1775595;81;21763;-78
2022/11/20 02:21:08;;;;;;;30.90;19.60;;;;;;;5.54;77.24;100658.66;1775568;81;21251;-79
2022/11/20 02:24:22;;;;;;;24.00;18.55;;;;;;;5.36;77.86;100641.67;1775199;81;21196;-79
2022/11/20 02:27:28;;;;;;;26.70;17.32;;;;;;;5.10;78.83;100603.27;1775072;81;21204;-79
2022/11/20 02:30:36;;;;;;;21.57;15.72;;;;;;;5.56;77.49;100606.48;1773579;81;21897;-77
2022/11/20 02:33:42;;;;;;;25.52;17.42;;;;;;;5.59;77.17;100592.63;1769779;81;21763;-78
2022/11/20 02:36:48;;;;;;;25.02;16.62;;;;;;;4.96;78.84;100553.95;1769877;81;21189;-78
2022/11/20 02:39:57;;;;;;;30.27;20.52;;;;;;;5.50;77.62;100560.89;1769143;81;21194;-78
2022/11/20 02:43:03;;;;;;;30.97;21.90;;;;;;;5.46;77.28;100565.75;1770046;81;21173;-79
2022/11/20 02:46:09;;;;;;;30.77;21.80;;;;;;;5.60;77.11;100587.09;1769423;81;21233;-78
2022/11/20 02:49:16;;;;;;;34.03;22.22;;;;;;;4.91;79.45;100568.41;1770016;81;21802;-79
2022/11/20 02:52:21;;;;;;;37.55;24.37;;;;;;;5.56;77.59;100560.36;1770295;81;21189;-78
2022/11/20 02:55:28;;;;;;;35.98;23.15;;;;;;;5.11;78.74;100564.80;1770200;81;21180;-78
2022/11/20 02:58:33;;;;;;;32.30;22.05;;;;;;;4.77;80.49;100551.98;1770265;81;21300;-78
2022/11/20 03:01:39;;;;;;;34.27;22.05;;;;;;;4.96;80.58;100540.40;1769476;81;21224;-79
2022/11/20 03:04:45;;;;;;;32.73;22.10;;;;;;;4.82;81.22;100542.96;1770276;81;21185;-78
2022/11/20 03:07:51;;;;;;;28.65;19.60;;;;;;;5.00;81.15;100562.19;1770204;81;21251;-78
2022/11/20 03:10:57;;;;;;;31.15;22.15;;;;;;;5.29;79.67;100569.10;1769110;81;21770;-78
2022/11/20 03:14:03;;;;;;;31.87;22.15;;;;;;;5.30;79.43;100567.60;1770013;81;21217;-78
2022/11/20 03:17:10;;;;;;;39.10;23.83;;;;;;;4.87;80.70;100570.02;1769171;81;21217;-78
2022/11/20 03:20:16;;;;;;;42.45;27.52;;;;;;;4.91;81.33;100582.82;1768798;81;21189;-79
2022/11/20 03:23:22;;;;;;;41.60;27.32;;;;;;;4.74;81.63;100592.39;1770252;81;21141;-79
2022/11/20 03:26:31;;;;;;;40.90;27.02;;;;;;;5.08;81.38;100597.59;1770220;81;21814;-78
2022/11/20 03:29:38;;;;;;;54.35;33.00;;;;;;;5.11;81.03;100598.70;1770008;81;21782;-77
2022/11/20 03:32:43;;;;;;;43.75;31.52;;;;;;;5.18;80.65;100605.31;1771565;80;21216;-79
2022/11/20 03:35:49;;;;;;;60.63;35.13;;;;;;;5.24;81.14;100603.41;1775942;81;21161;-78
2022/11/20 03:38:56;;;;;;;55.52;34.92;;;;;;;5.09;81.27;100606.97;1775864;81;21493;-78
2022/11/20 03:42:02;;;;;;;48.87;32.20;;;;;;;5.12;81.65;100605.33;1775866;81;21181;-79
2022/11/20 03:45:09;;;;;;;44.83;28.38;;;;;;;5.26;81.00;100598.70;1775914;81;21201;-78
2022/11/20 03:48:14;;;;;;;47.40;30.50;;;;;;;5.37;80.67;100615.41;1774715;81;21205;-80
2022/11/20 03:51:26;;;;;;;45.73;29.40;;;;;;;5.49;80.24;100631.08;1775052;81;21212;-79
2022/11/20 03:54:32;;;;;;;55.58;31.52;;;;;;;5.78;79.25;100633.41;1776038;81;21232;-79
2022/11/20 03:57:37;;;;;;;45.92;29.95;;;;;;;5.76;78.73;100626.41;1776114;81;21601;-79
2022/11/20 04:00:43;;;;;;;51.63;31.45;;;;;;;5.91;78.49;100644.03;1774447;80;21207;-80
2022/11/20 04:03:50;;;;;;;46.83;31.12;;;;;;;5.92;78.25;100642.20;1775742;81;21205;-79
2022/11/20 04:06:55;;;;;;;43.87;28.95;;;;;;;5.55;78.66;100644.09;1775681;81;21196;-79
2022/11/20 04:10:01;;;;;;;53.50;30.60;;;;;;;5.84;78.33;100639.66;1775593;81;21196;-78
2022/11/20 04:13:08;;;;;;;50.12;30.20;;;;;;;5.86;78.96;100637.66;1775550;81;21177;-79
2022/11/20 04:16:16;;;;;;;47.60;29.48;;;;;;;5.58;78.90;100648.76;1774037;81;21223;-79
2022/11/20 04:19:23;;;;;;;47.05;28.05;;;;;;;5.67;78.82;100641.66;1775444;81;21161;-79
2022/11/20 04:22:30;;;;;;;44.23;28.65;;;;;;;5.54;79.79;100616.10;1775889;81;21174;-79
2022/11/20 04:25:36;;;;;;;47.25;29.95;;;;;;;5.51;79.88;100616.90;1775681;81;21197;-79
2022/11/20 04:28:42;;;;;;;49.80;31.82;;;;;;;5.25;80.96;100594.77;1732795;81;21440;-79
2022/11/20 04:31:49;;;;;;;49.63;31.55;;;;;;;5.47;80.91;100598.67;1730535;83;21282;-78
2022/11/20 04:34:55;;;;;;;49.35;30.50;;;;;;;5.58;80.18;100626.19;1709835;81;21247;-79
2022/11/20 04:38:01;;;;;;;44.27;30.43;;;;;;;5.33;79.64;100618.88;1715813;83;21185;-79
2022/11/20 04:41:09;;;;;;;47.83;27.80;;;;;;;3.95;87.13;100603.18;1716064;83;21584;-79
2022/11/20 04:44:14;;;;;;;43.52;27.65;;;;;;;3.85;89.33;100586.84;1721523;83;21196;-79
2022/11/20 04:47:20;;;;;;;42.20;27.13;;;;;;;4.66;86.70;100566.48;1721076;83;21185;-77
2022/11/20 04:50:25;;;;;;;44.40;28.15;;;;;;;4.63;86.01;100576.21;1721628;83;21192;-78
2022/11/20 04:53:25;;;;;;;37.80;26.93;;;;;;;5.14;83.92;100569.97;1721559;83;21197;-78
2022/11/20 04:56:18;;;;;;;41.28;26.87;;;;;;;4.72;85.43;100562.37;1721598;83;21196;-78
2022/11/20 04:59:23;;;;;;;35.35;24.37;;;;;;;4.69;85.54;100545.87;1720320;83;21236;-78
2022/11/20 05:02:23;;;;;;;28.98;19.80;;;;;;;4.68;86.06;100517.06;1720156;83;21188;-79
2022/11/20 05:05:29;;;;;;;28.65;20.02;;;;;;;4.58;86.72;100495.83;1720259;83;21200;-78
2022/11/20 05:08:35;;;;;;;30.48;19.95;;;;;;;4.69;86.25;100496.23;1721242;83;21205;-79
2022/11/20 05:11:41;;;;;;;29.55;19.50;;;;;;;4.56;86.63;100495.09;1721067;83;21826;-80
2022/11/20 05:14:48;;;;;;;28.57;19.12;;;;;;;4.61;86.40;100506.38;1721013;83;21835;-79
2022/11/20 05:17:58;;;;;;;27.75;19.45;;;;;;;4.36;87.23;100523.89;1720403;83;21746;-80
2022/11/20 05:21:04;;;;;;;27.02;19.45;;;;;;;4.72;86.24;100552.39;1721712;83;21200;-80
2022/11/20 05:24:10;;;;;;;26.70;17.90;;;;;;;3.93;87.30;100563.22;1721593;83;21209;-78
2022/11/20 05:27:16;;;;;;;29.02;17.35;;;;;;;4.06;87.44;100581.02;1721420;83;21208;-78
2022/11/20 05:30:23;;;;;;;29.12;17.92;;;;;;;4.09;89.05;100589.36;1721602;83;21208;-78
2022/11/20 05:33:28;;;;;;;26.35;17.70;;;;;;;4.10;88.63;100559.47;1721367;83;21799;-79
2022/11/20 05:36:35;;;;;;;25.68;18.05;;;;;;;3.91;88.97;100579.59;1747010;82;21292;-78
2022/11/20 05:39:41;;;;;;;30.10;17.35;;;;;;;4.02;89.61;100585.45;1746976;82;21185;-79
2022/11/20 05:42:47;;;;;;;25.25;17.37;;;;;;;3.84;89.77;100578.36;1746150;82;21185;-78
2022/11/20 05:46:02;;;;;;;25.68;17.77;;;;;;;4.03;89.22;100570.43;1746968;82;21194;-79
2022/11/20 05:49:07;;;;;;;26.80;17.23;;;;;;;4.21;88.18;100581.58;1746430;82;21228;-79
2022/11/20 05:52:13;;;;;;;31.55;19.42;;;;;;;4.22;88.29;100579.72;1746542;82;21221;-78
2022/11/20 05:55:19;;;;;;;27.35;18.70;;;;;;;3.54;89.50;100604.73;1746904;82;21236;-79
2022/11/20 05:58:27;;;;;;;26.80;18.70;;;;;;;3.93;90.40;100591.63;1746877;82;21311;-78
2022/11/20 06:01:32;;;;;;;29.57;18.20;;;;;;;4.23;88.59;100598.54;1747026;82;21216;-79
2022/11/20 06:04:39;;;;;;;27.13;18.23;;;;;;;4.33;87.80;100575.64;1746395;82;21347;-78
2022/11/20 06:07:45;;;;;;;33.92;19.10;;;;;;;4.41;87.33;100581.73;1747069;82;21225;-78
2022/11/20 06:10:51;;;;;;;26.45;17.90;;;;;;;4.21;87.62;100582.93;1746847;82;21244;-78
2022/11/20 06:13:58;;;;;;;26.10;17.70;;;;;;;4.23;88.03;100594.97;1745455;82;21216;-78
2022/11/20 06:17:05;;;;;;;25.95;17.85;;;;;;;4.27;87.83;100604.56;1745499;82;21200;-79
2022/11/20 06:20:11;;;;;;;26.65;18.02;;;;;;;4.30;86.96;100616.01;1746243;82;21783;-79
2022/11/20 06:23:17;;;;;;;28.12;18.17;;;;;;;4.09;87.25;100616.42;1746194;82;21517;-79
2022/11/20 06:26:31;;;;;;;31.77;19.80;;;;;;;4.28;86.95;100636.95;1745462;82;21197;-79
2022/11/20 06:29:38;;;;;;;32.28;19.40;;;;;;;4.28;86.39;100601.75;1746940;82;21228;-79
2022/11/20 06:32:44;;;;;;;32.83;17.80;;;;;;;4.52;85.14;100576.28;1746335;82;21213;-79
2022/11/20 06:35:50;;;;;;;25.50;17.92;;;;;;;4.45;85.15;100559.67;1744608;82;21236;-77
2022/11/20 06:38:58;;;;;;;27.25;18.23;;;;;;;4.26;86.11;100541.92;1802593;79;21216;-77
2022/11/20 06:42:03;;;;;;;31.37;19.55;;;;;;;4.36;85.92;100549.13;1801184;79;21759;-78
2022/11/20 06:45:09;;;;;;;26.77;18.52;;;;;;;4.40;85.46;100555.65;1801116;79;21181;-79
2022/11/20 06:48:14;;;;;;;27.07;19.05;;;;;;;4.40;85.14;100542.11;1800960;79;21185;-78
2022/11/20 06:51:19;;;;;;;29.48;20.32;;;;;;;4.12;86.22;100540.38;1801134;79;21267;-78
2022/11/20 06:54:19;;;;;;;23.52;17.85;;;;;;;4.23;86.07;100543.03;1801578;79;21213;-78
2022/11/20 06:57:26;;;;;;;32.15;20.40;;;;;;;3.85;86.19;100548.45;1801074;79;21829;-78
2022/11/20 07:00:32;;;;;;;27.25;19.92;;;;;;;4.03;87.21;100559.61;1802290;79;21181;-79
2022/11/20 07:03:39;;;;;;;33.02;20.10;;;;;;;3.25;90.22;100587.66;1801625;79;21287;-78
2022/11/20 07:06:48;;;;;;;48.50;23.55;;;;;;;2.98;93.25;100585.80;1801998;79;21776;-78
2022/11/20 07:09:54;;;;;;;51.65;30.23;;;;;;;3.22;92.79;100577.58;1800566;79;21241;-77
2022/11/20 07:13:00;;;;;;;46.00;27.62;;;;;;;3.71;93.39;100593.88;1800392;79;21307;-78
2022/11/20 07:16:11;;;;;;;44.08;26.75;;;;;;;3.96;91.93;100579.21;1802496;79;21181;-80
2022/11/20 07:19:18;;;;;;;45.05;28.32;;;;;;;3.96;91.88;100558.41;1801185;79;21874;-79
2022/11/20 07:22:25;;;;;;;45.25;24.72;;;;;;;3.33;93.50;100562.20;1800757;79;21162;-77
2022/11/20 07:25:32;;;;;;;38.35;22.82;;;;;;;3.30;94.59;100567.88;1802586;79;21303;-78
2022/11/20 07:28:39;;;;;;;37.20;22.73;;;;;;;3.37;95.79;100587.65;1802583;79;21715;-78
2022/11/20 07:31:45;;;;;;;40.28;24.12;;;;;;;3.41;95.61;100585.92;1802556;79;21177;-78
2022/11/20 07:34:52;;;;;;;40.05;24.37;;;;;;;3.35;95.86;100574.76;1801168;79;21196;-79
2022/11/20 07:37:58;;;;;;;36.17;22.58;;;;;;;3.11;95.87;100557.31;1805386;79;21224;-78
2022/11/20 07:41:04;;;;;;;41.37;24.40;;;;;;;3.30;97.95;100570.58;1808152;79;21180;-78
2022/11/20 07:44:11;;;;;;;45.63;26.15;;;;;;;3.06;98.58;100594.17;1780765;79;21177;-79
2022/11/20 07:47:10;;;;;;;40.23;24.98;;;;;;;3.16;98.64;100580.28;1769063;81;21546;-79
2022/11/20 07:50:03;;;;;;;39.00;24.12;;;;;;;3.23;98.45;100590.96;1769153;81;21204;-79
2022/11/20 07:52:50;;;;;;;40.20;24.50;;;;;;;3.49;97.42;100578.56;1767736;81;21747;-80
2022/11/20 07:55:43;;;;;;;40.55;22.98;;;;;;;3.58;96.74;100611.62;1769115;81;21221;-79
2022/11/20 07:58:32;;;;;;;40.63;25.68;;;;;;;3.95;96.46;100596.41;1767327;81;21183;-79
2022/11/20 08:01:25;;;;;;;40.45;23.98;;;;;;;3.52;97.39;100552.09;1763779;81;21187;-79
2022/11/20 08:04:32;;;;;;;40.08;24.87;;;;;;;3.69;96.66;100552.08;1763068;81;21191;-79
2022/11/20 08:07:39;;;;;;;46.85;26.35;;;;;;;3.65;96.69;100547.91;1763856;81;21218;-78
2022/11/20 08:10:46;;;;;;;40.35;23.52;;;;;;;3.99;95.53;100528.86;1743310;81;21187;-79
2022/11/20 08:17:17;;;;;;;41.45;24.43;;;;;;;4.09;93.82;100504.08;1763723;81;21235;-79
2022/11/20 08:20:23;;;;;;;41.37;24.95;;;;;;;4.33;93.25;100486.27;1763981;81;21202;-77
2022/11/20 08:23:30;;;;;;;42.03;24.63;;;;;;;4.24;93.01;100481.14;1763972;81;21238;-79
2022/11/20 08:26:37;;;;;;;38.90;24.05;;;;;;;4.31;93.22;100467.92;1763686;81;21230;-80
2022/11/20 08:29:44;;;;;;;39.45;22.40;;;;;;;4.24;93.48;100444.59;1764022;81;22037;-79
2022/11/20 08:32:51;;;;;;;37.25;22.32;;;;;;;4.48;93.06;100444.30;1764031;81;21183;-79
2022/11/20 08:35:57;;;;;;;33.53;20.70;;;;;;;4.61;92.47;100449.48;1762804;81;21222;-79
2022/11/20 08:39:04;;;;;;;42.90;24.43;;;;;;;4.02;92.76;100439.30;1760804;81;21271;-78
2022/11/20 08:42:09;;;;;;;36.68;21.73;;;;;;;4.17;93.98;100410.04;1760731;81;21161;-79
2022/11/20 08:45:16;;;;;;;32.30;20.27;;;;;;;4.16;94.20;100402.41;1759997;81;21188;-78
2022/11/20 08:48:24;;;;;;;36.65;19.55;;;;;;;4.30;93.69;100392.59;1760894;81;21228;-77
2022/11/20 08:51:30;;;;;;;33.63;19.95;;;;;;;4.29;93.37;100381.41;1759140;81;21200;-78
2022/11/20 08:54:36;;;;;;;36.58;23.92;;;;;;;4.13;93.64;100355.80;1758806;81;21393;-78
2022/11/20 08:57:43;;;;;;;44.70;25.97;;;;;;;4.09;94.50;100349.78;1760325;81;21247;-78
2022/11/20 09:00:48;;;;;;;44.98;27.45;;;;;;;4.25;94.11;100366.92;1758876;81;21267;-78
2022/11/20 09:03:54;;;;;;;35.20;23.02;;;;;;;4.31;93.80;100392.95;1760313;81;21247;-78
2022/11/20 09:07:00;;;;;;;34.15;22.48;;;;;;;4.49;93.19;100381.50;1759973;81;21290;-78
2022/11/20 09:10:07;;;;;;;43.38;25.15;;;;;;;4.46;92.86;100372.28;1760677;81;21173;-77
2022/11/20 09:13:15;;;;;;;35.52;21.60;;;;;;;4.46;92.88;100378.55;1760722;81;21307;-78
2022/11/20 09:16:22;;;;;;;36.53;21.62;;;;;;;4.71;91.88;100373.19;1759550;81;21298;-79
2022/11/20 09:19:29;;;;;;;33.13;19.60;;;;;;;4.68;91.02;100384.29;1759482;81;21739;-79
2022/11/20 09:22:36;;;;;;;33.88;21.12;;;;;;;4.73;90.86;100362.20;1760234;81;21826;-78
2022/11/20 09:25:43;;;;;;;35.80;22.10;;;;;;;4.81;90.71;100342.05;1760345;81;21172;-79
2022/11/20 09:28:49;;;;;;;36.20;21.73;;;;;;;4.84;90.79;100337.19;1759580;81;21307;-78
2022/11/20 09:31:49;;;;;;;29.52;18.55;;;;;;;4.83;90.84;100334.63;1760776;81;21750;-78
2022/11/20 09:34:41;;;;;;;33.30;20.30;;;;;;;4.86;91.03;100318.09;1760834;81;21177;-78
2022/11/20 12:33:30;;;;;;;18.07;13.60;;;;;;;3.89;100.00;100094.95;1764671;79;28261;-75
2022/11/20 12:36:39;;;;;;;;;;;;;;;3.70;100.00;100098.45;1733998;81;21192;-76
2022/11/20 12:39:53;;;;;;;15.50;10.55;;;;;;;3.82;100.00;100091.45;1731559;83;20197;-76
2022/11/20 12:47:02;;;;;;;21.60;11.20;;;;;;;3.70;100.00;100078.16;1731168;81;21212;-76
2022/11/20 12:50:48;;;;;;;29.55;17.90;;;;;;;3.68;100.00;100068.84;1732039;83;21164;-76
2022/11/20 12:54:09;;;;;;;25.15;14.13;;;;;;;3.82;100.00;100066.25;1685685;82;21765;-75
2022/11/20 12:57:41;;;;;;;14.15;10.05;;;;;;;3.77;100.00;100049.08;1700863;81;21181;-75
2022/11/20 13:00:55;;;;;;;11.65;10.20;;;;;;;3.85;100.00;100053.27;1730364;83;21153;-76
2022/11/20 13:04:01;;;;;;;13.95;10.90;;;;;;;4.00;100.00;100049.69;1731750;83;21177;-76
2022/11/20 13:07:12;;;;;;;15.78;10.85;;;;;;;4.12;100.00;100046.34;1731378;81;21172;-76
2022/11/20 13:10:37;;;;;;;15.45;11.00;;;;;;;3.88;100.00;100029.66;1732133;83;21156;-76
2022/11/20 13:14:21;;;;;;;16.52;11.95;;;;;;;3.76;100.00;100041.93;1731859;83;21149;-76
2022/11/20 13:17:54;;;;;;;15.35;11.65;;;;;;;3.94;100.00;100031.29;1731893;81;21173;-76
2022/11/20 13:21:00;;;;;;;17.12;11.80;;;;;;;4.11;100.00;100027.05;1731913;83;21161;-76
2022/11/20 13:24:33;;;;;;;28.92;23.10;;;;;;;4.04;100.00;100019.12;1732078;83;21199;-76
2022/11/20 13:27:36;;;;;;;25.48;19.80;;;;;;;4.02;100.00;100016.56;1731707;81;21204;-76
2022/11/20 13:30:43;;;;;;;16.67;11.68;;;;;;;4.06;100.00;100002.26;1731902;83;21854;-76
2022/11/20 13:33:50;;;;;;;15.93;10.45;;;;;;;4.03;100.00;99997.97;1730033;83;21761;-76
2022/11/20 13:37:00;;;;;;;27.27;19.65;;;;;;;4.04;100.00;99997.47;1719162;81;21240;-76
2022/11/20 13:40:20;;;;;;;30.52;22.02;;;;;;;3.85;100.00;99989.69;1731367;83;21141;-76
2022/11/20 13:43:42;;;;;;;29.07;22.45;;;;;;;3.87;100.00;99993.63;1731294;81;21223;-76
2022/11/20 13:46:53;;;;;;;25.65;15.70;;;;;;;4.19;100.00;99987.94;1731432;81;21181;-76
2022/11/20 13:49:59;;;;;;;203.60;163.25;;;;;;;4.38;100.00;99992.98;1731411;83;21730;-76
2022/11/20 13:53:22;;;;;;;20.43;14.35;;;;;;;4.38;100.00;100001.11;1731330;81;21216;-76
2022/11/20 13:56:57;;;;;;;45.73;35.88;;;;;;;4.29;100.00;100000.12;1731262;81;21176;-76
2022/11/20 14:00:21;;;;;;;18.70;12.55;;;;;;;4.19;100.00;99988.41;1731251;83;21164;-76
2022/11/20 14:03:28;;;;;;;16.80;12.55;;;;;;;4.27;100.00;99986.70;1730113;81;21212;-76
2022/11/20 14:06:40;;;;;;;16.42;11.78;;;;;;;4.41;100.00;99976.43;1730584;81;21236;-75
2022/11/20 14:09:45;;;;;;;36.35;27.75;;;;;;;4.52;100.00;99973.58;1731485;83;21168;-76
2022/11/20 14:12:51;;;;;;;38.65;28.67;;;;;;;4.42;100.00;99964.09;1730441;81;21774;-76
2022/11/20 14:16:03;;;;;;;65.15;53.95;;;;;;;4.46;100.00;99976.34;1731404;83;21211;-76
2022/11/20 14:19:30;;;;;;;25.80;19.95;;;;;;;4.42;100.00;99983.55;1716458;83;21184;-76
2022/11/20 14:22:36;;;;;;;86.47;67.27;;;;;;;4.48;100.00;99976.22;1729407;81;21728;-76
2022/11/20 14:25:43;;;;;;;37.78;28.67;;;;;;;4.45;100.00;99970.58;1730062;83;21228;-76
2022/11/20 14:28:49;;;;;;;21.75;15.30;;;;;;;4.51;100.00;99963.22;1730100;83;21174;-76
2022/11/20 14:31:58;;;;;;;23.20;14.98;;;;;;;4.50;100.00;99968.79;1729660;81;21215;-76
2022/11/20 14:35:03;;;;;;;23.95;15.55;;;;;;;4.39;100.00;99949.50;1718638;83;21247;-76
2022/11/20 14:38:09;;;;;;;24.70;17.70;;;;;;;4.35;100.00;99943.52;1730719;83;21207;-76
2022/11/20 14:41:17;;;;;;;26.37;18.60;;;;;;;4.68;100.00;99937.23;1731806;83;21184;-76
2022/11/20 14:44:22;;;;;;;64.60;48.40;;;;;;;4.61;100.00;99932.92;1730866;83;21236;-76
2022/11/20 14:47:32;;;;;;;47.95;34.73;;;;;;;4.60;100.00;99931.19;1731158;83;21204;-76
2022/11/20 14:50:38;;;;;;;31.20;18.67;;;;;;;4.66;100.00;99935.19;1731896;83;21168;-76
2022/11/20 14:53:45;;;;;;;31.82;22.22;;;;;;;4.76;100.00;99933.30;1720592;83;21189;-76
2022/11/20 14:57:07;;;;;;;42.45;28.05;;;;;;;4.44;100.00;99943.66;1731616;83;21200;-76
2022/11/20 15:00:25;;;;;;;76.17;57.20;;;;;;;4.64;100.00;99937.17;1731586;83;21164;-76
2022/11/20 15:03:45;;;;;;;30.40;18.97;;;;;;;4.76;100.00;99929.73;1731685;83;21204;-76
2022/11/20 15:06:58;;;;;;;47.80;36.17;;;;;;;5.09;100.00;99912.89;1731839;83;21180;-76
2022/11/20 15:10:24;;;;;;;77.30;58.02;;;;;;;4.85;100.00;99900.39;1732001;83;21205;-76
2022/11/20 15:13:22;;;;;;;;;;;;;;;4.76;100.00;99898.07;1733974;83;21232;-76
2022/11/20 15:16:29;;;;;;;67.17;49.88;;;;;;;5.08;100.00;99875.06;1731845;83;20184;-76
2022/11/20 15:19:36;;;;;;;58.80;40.75;;;;;;;4.83;100.00;99866.64;1730702;83;21204;-76
2022/11/20 15:22:42;;;;;;;103.75;83.10;;;;;;;5.03;100.00;99857.05;1730869;83;21228;-76
2022/11/20 15:25:48;;;;;;;83.52;62.65;;;;;;;5.32;100.00;99863.16;1730421;83;21700;-76
2022/11/20 15:28:56;;;;;;;106.60;85.05;;;;;;;5.27;100.00;99865.48;1730424;83;21173;-75
2022/11/20 15:32:02;;;;;;;85.15;65.00;;;;;;;5.07;100.00;99853.88;1731411;83;21195;-75
2022/11/20 15:35:11;;;;;;;224.52;189.18;;;;;;;5.17;100.00;99861.95;1729910;82;21251;-76
2022/11/20 15:38:15;;;;;;;78.85;56.70;;;;;;;4.94;100.00;99868.80;1726191;83;21203;-76
2022/11/20 15:41:21;;;;;;;66.77;38.45;;;;;;;4.51;100.00;99872.98;1756004;81;21160;-76
2022/11/20 15:44:27;;;;;;;51.68;29.55;;;;;;;5.26;100.00;99866.97;1726527;83;21192;-75
2022/11/20 15:47:32;;;;;;;135.28;105.17;;;;;;;4.81;100.00;99860.53;1756704;81;21180;-75
2022/11/20 15:50:48;;;;;;;127.67;85.30;;;;;;;4.83;100.00;99854.45;1727240;83;21208;-76
2022/11/20 15:53:53;;;;;;;90.57;65.32;;;;;;;4.86;100.00;99836.55;1757149;81;21152;-78
2022/11/20 15:57:00;;;;;;;42.78;25.90;;;;;;;4.81;100.00;99835.30;1727110;83;21211;-78
2022/11/20 16:00:05;;;;;;;160.22;116.80;;;;;;;4.95;100.00;99829.37;1757489;81;21255;-78
2022/11/20 16:03:12;;;;;;;198.57;150.50;;;;;;;5.21;100.00;99836.75;1726277;83;21768;-78
2022/11/20 16:06:18;;;;;;;213.07;164.70;;;;;;;5.30;100.00;99831.25;1757314;81;21144;-78
2022/11/20 16:09:24;;;;;;;236.40;193.68;;;;;;;5.34;100.00;99824.52;1727477;83;21164;-78
2022/11/20 16:16:04;;;;;;;157.05;99.45;;;;;;;5.33;100.00;99822.82;1727500;83;21184;-78
2022/11/20 16:19:10;;;;;;;97.88;50.08;;;;;;;5.52;100.00;99816.89;1757228;81;21208;-78
2022/11/20 16:22:19;;;;;;;113.22;52.95;;;;;;;5.38;100.00;99811.00;1726835;83;21815;-78
2022/11/20 16:25:25;;;;;;;150.40;104.90;;;;;;;5.48;100.00;99803.29;1756400;81;21192;-78
2022/11/20 16:28:31;;;;;;;196.57;145.77;;;;;;;5.49;100.00;99792.78;1726231;83;21196;-78
2022/11/20 16:31:36;;;;;;;313.65;229.90;;;;;;;5.66;100.00;99805.48;1757373;81;21191;-78
2022/11/20 16:34:43;;;;;;;224.85;158.93;;;;;;;5.58;100.00;99799.98;1726574;83;21247;-79
2022/11/20 16:37:49;;;;;;;199.57;143.72;;;;;;;5.80;100.00;99799.48;1704778;84;21211;-78
2022/11/20 16:40:55;;;;;;;127.22;49.03;;;;;;;5.67;100.00;99783.27;1697738;84;21180;-78
2022/11/20 16:44:03;;;;;;;139.10;62.13;;;;;;;5.74;100.00;99773.00;1697478;84;21192;-79
2022/11/20 16:47:10;;;;;;;87.00;67.65;;;;;;;5.70;100.00;99772.95;1697058;84;21748;-79
2022/11/20 16:50:15;;;;;;;181.85;100.90;;;;;;;5.95;100.00;99773.16;1697106;84;21255;-78
2022/11/20 16:53:21;;;;;;;137.65;70.32;;;;;;;6.02;100.00;99776.92;1716289;83;21209;-79
2022/11/20 16:56:30;;;;;;;89.92;60.50;;;;;;;6.34;100.00;99777.11;1717637;83;21204;-79
2022/11/20 16:59:37;;;;;;;201.45;94.10;;;;;;;6.45;100.00;99771.07;1717867;83;21196;-79
2022/11/20 17:02:42;;;;;;;62.08;34.70;;;;;;;6.10;100.00;99779.70;1717572;83;21785;-79
2022/11/20 17:05:49;;;;;;;114.25;31.12;;;;;;;6.24;100.00;99773.66;1716647;83;21776;-79
2022/11/20 17:08:55;;;;;;;155.35;53.42;;;;;;;6.46;100.00;99769.54;1717673;83;21220;-79
2022/11/20 17:12:02;;;;;;;179.23;32.98;;;;;;;6.71;100.00;99769.12;1717206;83;21221;-79
2022/11/20 17:15:10;;;;;;;191.98;32.60;;;;;;;6.69;100.00;99763.52;1717289;83;21220;-79
2022/11/20 17:18:17;;;;;;;128.23;29.35;;;;;;;6.56;100.00;99758.03;1716416;83;21213;-79
2022/11/20 17:21:22;;;;;;;148.60;33.30;;;;;;;6.71;100.00;99763.68;1716872;83;21260;-79
2022/11/20 17:24:28;;;;;;;77.15;29.02;;;;;;;6.70;100.00;99757.91;1717760;83;21212;-80
2022/11/20 17:27:35;;;;;;;200.95;64.53;;;;;;;6.91;100.00;99758.30;1716919;83;21200;-79
2022/11/20 17:30:41;;;;;;;85.95;32.30;;;;;;;6.89;100.00;99760.34;1717686;83;21224;-78